sensor_id;sensor_type;location;lat;lon;timestamp;temperature;humidity
51793;DHT22;37850;53.178;6.376;2023-12-20T00:01:25;5.90;99.90
51793;DHT22;37850;53.178;6.376;2023-12-20T00:03:51;5.80;99.90
51793;DHT22;37850;53.178;6.376;2023-12-20T00:06:17;5.80;99.90
51793;DHT22;37850;53.178;6.376;2023-12-20T00:08:43;5.80;99.90
51793;DHT22;37850;53.178;6.376;2023-12-20T00:11:09;5.90;99.90
51793;DHT22;37850;53.178;6.376;2023-12-20T00:13:35;5.80;99.90
51793;DHT22;37850;53.178;6.376;2023-12-20T00:16:01;5.70;99.90
51793;DHT22;37850;53.178;6.376;2023-12-20T00:18:26;5.80;99.90
51793;DHT22;37850;53.178;6.376;2023-12-20T00:20:52;5.80;99.90
51793;DHT22;37850;53.178;6.376;2023-12-20T00:23:18;5.80;99.90
51793;DHT22;37850;53.178;6.376;2023-12-20T00:25:43;5.70;99.90
51793;DHT22;37850;53.178;6.376;2023-12-20T00:28:09;5.70;99.90
51793;DHT22;37850;53.178;6.376;2023-12-20T00:30:35;5.70;99.90
51793;DHT22;37850;53.178;6.376;2023-12-20T00:33:01;5.70;99.90
51793;DHT22;37850;53.178;6.376;2023-12-20T00:35:28;5.70;99.90
51793;DHT22;37850;53.178;6.376;2023-12-20T00:37:53;5.70;99.90
51793;DHT22;37850;53.178;6.376;2023-12-20T00:40:19;5.80;99.90
51793;DHT22;37850;53.178;6.376;2023-12-20T00:42:46;5.70;99.90
51793;DHT22;37850;53.178;6.376;2023-12-20T00:45:12;5.70;99.90
51793;DHT22;37850;53.178;6.376;2023-12-20T00:47:38;5.70;99.90
51793;DHT22;37850;53.178;6.376;2023-12-20T00:50:04;5.70;99.90
51793;DHT22;37850;53.178;6.376;2023-12-20T00:52:30;5.70;99.90
51793;DHT22;37850;53.178;6.376;2023-12-20T00:54:56;5.70;99.90
51793;DHT22;37850;53.178;6.376;2023-12-20T00:57:21;5.70;99.90
51793;DHT22;37850;53.178;6.376;2023-12-20T00:59:47;5.60;99.90
51793;DHT22;37850;53.178;6.376;2023-12-20T01:02:13;5.70;99.90
51793;DHT22;37850;53.178;6.376;2023-12-20T01:04:38;5.60;99.90
51793;DHT22;37850;53.178;6.376;2023-12-20T01:07:04;5.60;99.90
51793;DHT22;37850;53.178;6.376;2023-12-20T01:09:30;5.60;99.90
51793;DHT22;37850;53.178;6.376;2023-12-20T01:11:55;5.60;99.90
51793;DHT22;37850;53.178;6.376;2023-12-20T01:14:21;5.60;99.90
51793;DHT22;37850;53.178;6.376;2023-12-20T01:16:47;5.90;99.90
51793;DHT22;37850;53.178;6.376;2023-12-20T01:19:13;5.60;99.90
51793;DHT22;37850;53.178;6.376;2023-12-20T01:21:39;6.20;99.90
51793;DHT22;37850;53.178;6.376;2023-12-20T01:24:05;5.60;99.90
51793;DHT22;37850;53.178;6.376;2023-12-20T01:26:31;5.60;99.90
51793;DHT22;37850;53.178;6.376;2023-12-20T01:28:57;5.60;99.90
51793;DHT22;37850;53.178;6.376;2023-12-20T01:31:23;5.60;99.90
51793;DHT22;37850;53.178;6.376;2023-12-20T01:33:48;5.60;99.90
51793;DHT22;37850;53.178;6.376;2023-12-20T01:36:14;5.70;99.90
51793;DHT22;37850;53.178;6.376;2023-12-20T01:38:40;6.10;99.90
51793;DHT22;37850;53.178;6.376;2023-12-20T01:41:06;5.70;99.90
51793;DHT22;37850;53.178;6.376;2023-12-20T01:43:31;5.70;99.90
51793;DHT22;37850;53.178;6.376;2023-12-20T01:45:57;5.70;99.90
51793;DHT22;37850;53.178;6.376;2023-12-20T01:48:26;5.70;99.90
51793;DHT22;37850;53.178;6.376;2023-12-20T01:50:53;5.70;99.90
51793;DHT22;37850;53.178;6.376;2023-12-20T01:53:23;5.70;99.90
51793;DHT22;37850;53.178;6.376;2023-12-20T01:55:50;5.60;99.90
51793;DHT22;37850;53.178;6.376;2023-12-20T01:58:17;5.60;99.90
51793;DHT22;37850;53.178;6.376;2023-12-20T02:00:44;5.60;99.90
51793;DHT22;37850;53.178;6.376;2023-12-20T02:03:10;5.60;99.90
51793;DHT22;37850;53.178;6.376;2023-12-20T02:05:38;5.60;99.90
51793;DHT22;37850;53.178;6.376;2023-12-20T02:08:04;5.60;99.90
51793;DHT22;37850;53.178;6.376;2023-12-20T02:10:31;5.50;99.90
51793;DHT22;37850;53.178;6.376;2023-12-20T02:12:57;5.60;99.90
51793;DHT22;37850;53.178;6.376;2023-12-20T02:15:23;5.60;99.90
51793;DHT22;37850;53.178;6.376;2023-12-20T02:17:49;5.60;99.90
51793;DHT22;37850;53.178;6.376;2023-12-20T02:20:15;5.60;99.90
51793;DHT22;37850;53.178;6.376;2023-12-20T02:22:41;5.60;99.90
51793;DHT22;37850;53.178;6.376;2023-12-20T02:25:07;5.70;99.90
51793;DHT22;37850;53.178;6.376;2023-12-20T02:27:33;5.70;99.90
51793;DHT22;37850;53.178;6.376;2023-12-20T02:29:59;5.70;99.90
51793;DHT22;37850;53.178;6.376;2023-12-20T02:32:25;5.70;99.90
51793;DHT22;37850;53.178;6.376;2023-12-20T02:34:54;5.70;99.90
51793;DHT22;37850;53.178;6.376;2023-12-20T02:37:21;5.80;99.90
51793;DHT22;37850;53.178;6.376;2023-12-20T02:39:46;5.80;99.90
51793;DHT22;37850;53.178;6.376;2023-12-20T02:42:12;5.80;99.90
51793;DHT22;37850;53.178;6.376;2023-12-20T02:44:38;5.80;99.90
51793;DHT22;37850;53.178;6.376;2023-12-20T02:47:04;5.80;99.90
51793;DHT22;37850;53.178;6.376;2023-12-20T02:49:30;5.80;99.90
51793;DHT22;37850;53.178;6.376;2023-12-20T02:51:55;5.80;99.90
51793;DHT22;37850;53.178;6.376;2023-12-20T02:54:21;5.80;99.90
51793;DHT22;37850;53.178;6.376;2023-12-20T02:56:48;5.90;99.90
51793;DHT22;37850;53.178;6.376;2023-12-20T02:59:14;5.80;99.90
51793;DHT22;37850;53.178;6.376;2023-12-20T03:01:45;5.80;99.90
51793;DHT22;37850;53.178;6.376;2023-12-20T03:04:11;5.90;99.90
51793;DHT22;37850;53.178;6.376;2023-12-20T03:06:37;5.80;99.90
51793;DHT22;37850;53.178;6.376;2023-12-20T03:09:03;5.90;99.90
51793;DHT22;37850;53.178;6.376;2023-12-20T03:11:29;5.80;99.90
51793;DHT22;37850;53.178;6.376;2023-12-20T03:13:55;5.90;99.90
51793;DHT22;37850;53.178;6.376;2023-12-20T03:16:21;5.90;99.90
51793;DHT22;37850;53.178;6.376;2023-12-20T03:18:46;5.90;99.90
51793;DHT22;37850;53.178;6.376;2023-12-20T03:21:12;5.90;99.90
51793;DHT22;37850;53.178;6.376;2023-12-20T03:23:39;5.90;99.90
51793;DHT22;37850;53.178;6.376;2023-12-20T03:26:09;6.00;99.90
51793;DHT22;37850;53.178;6.376;2023-12-20T03:28:36;6.00;99.90
51793;DHT22;37850;53.178;6.376;2023-12-20T03:31:02;6.00;99.90
51793;DHT22;37850;53.178;6.376;2023-12-20T03:33:29;6.00;99.90
51793;DHT22;37850;53.178;6.376;2023-12-20T03:35:54;6.00;99.90
51793;DHT22;37850;53.178;6.376;2023-12-20T03:38:21;6.00;99.90
51793;DHT22;37850;53.178;6.376;2023-12-20T03:40:46;5.90;99.90
51793;DHT22;37850;53.178;6.376;2023-12-20T03:43:12;6.00;99.90
51793;DHT22;37850;53.178;6.376;2023-12-20T03:45:38;6.00;99.90
51793;DHT22;37850;53.178;6.376;2023-12-20T03:48:04;6.00;99.90
51793;DHT22;37850;53.178;6.376;2023-12-20T03:50:30;5.90;99.90
51793;DHT22;37850;53.178;6.376;2023-12-20T03:52:56;6.00;99.90
51793;DHT22;37850;53.178;6.376;2023-12-20T03:55:22;6.00;99.90
51793;DHT22;37850;53.178;6.376;2023-12-20T03:57:47;6.00;99.90
51793;DHT22;37850;53.178;6.376;2023-12-20T04:00:13;6.00;99.90
51793;DHT22;37850;53.178;6.376;2023-12-20T04:02:40;5.90;99.90
51793;DHT22;37850;53.178;6.376;2023-12-20T04:05:07;6.00;99.90
51793;DHT22;37850;53.178;6.376;2023-12-20T04:07:34;6.00;99.90
51793;DHT22;37850;53.178;6.376;2023-12-20T04:10:00;6.60;99.90
51793;DHT22;37850;53.178;6.376;2023-12-20T04:12:27;6.10;99.90
51793;DHT22;37850;53.178;6.376;2023-12-20T04:14:53;6.00;99.90
51793;DHT22;37850;53.178;6.376;2023-12-20T04:17:20;6.00;99.90
51793;DHT22;37850;53.178;6.376;2023-12-20T04:19:48;6.00;99.90
51793;DHT22;37850;53.178;6.376;2023-12-20T04:22:14;6.10;99.90
51793;DHT22;37850;53.178;6.376;2023-12-20T04:24:40;6.00;99.90
51793;DHT22;37850;53.178;6.376;2023-12-20T04:27:07;6.10;99.90
51793;DHT22;37850;53.178;6.376;2023-12-20T04:29:34;6.10;99.90
51793;DHT22;37850;53.178;6.376;2023-12-20T04:31:59;6.20;99.90
51793;DHT22;37850;53.178;6.376;2023-12-20T04:34:25;6.10;99.90
51793;DHT22;37850;53.178;6.376;2023-12-20T04:36:52;6.20;99.90
51793;DHT22;37850;53.178;6.376;2023-12-20T04:39:17;6.20;99.90
51793;DHT22;37850;53.178;6.376;2023-12-20T04:41:43;6.20;99.90
51793;DHT22;37850;53.178;6.376;2023-12-20T04:44:09;6.20;99.90
51793;DHT22;37850;53.178;6.376;2023-12-20T04:46:35;6.20;99.90
51793;DHT22;37850;53.178;6.376;2023-12-20T04:49:01;6.20;99.90
51793;DHT22;37850;53.178;6.376;2023-12-20T04:51:27;6.40;99.90
51793;DHT22;37850;53.178;6.376;2023-12-20T04:53:52;6.30;99.90
51793;DHT22;37850;53.178;6.376;2023-12-20T04:56:18;6.30;99.90
51793;DHT22;37850;53.178;6.376;2023-12-20T04:58:44;6.40;99.90
51793;DHT22;37850;53.178;6.376;2023-12-20T05:01:09;6.30;99.90
51793;DHT22;37850;53.178;6.376;2023-12-20T05:03:36;6.60;99.90
51793;DHT22;37850;53.178;6.376;2023-12-20T05:06:02;6.60;99.90
51793;DHT22;37850;53.178;6.376;2023-12-20T05:08:27;6.40;99.90
51793;DHT22;37850;53.178;6.376;2023-12-20T05:10:54;6.40;99.90
51793;DHT22;37850;53.178;6.376;2023-12-20T05:13:20;6.40;99.90
51793;DHT22;37850;53.178;6.376;2023-12-20T05:15:46;6.50;99.90
51793;DHT22;37850;53.178;6.376;2023-12-20T05:18:12;6.70;99.90
51793;DHT22;37850;53.178;6.376;2023-12-20T05:20:39;6.50;99.90
51793;DHT22;37850;53.178;6.376;2023-12-20T05:23:04;6.50;99.90
51793;DHT22;37850;53.178;6.376;2023-12-20T05:25:30;6.50;99.90
51793;DHT22;37850;53.178;6.376;2023-12-20T05:27:56;6.50;99.90
51793;DHT22;37850;53.178;6.376;2023-12-20T05:30:22;6.50;99.90
51793;DHT22;37850;53.178;6.376;2023-12-20T05:32:48;6.60;99.90
51793;DHT22;37850;53.178;6.376;2023-12-20T05:35:14;6.50;99.90
51793;DHT22;37850;53.178;6.376;2023-12-20T05:37:41;6.60;99.90
51793;DHT22;37850;53.178;6.376;2023-12-20T05:40:07;6.60;99.90
51793;DHT22;37850;53.178;6.376;2023-12-20T05:42:38;6.60;99.90
51793;DHT22;37850;53.178;6.376;2023-12-20T05:45:05;6.60;99.90
51793;DHT22;37850;53.178;6.376;2023-12-20T05:47:31;6.60;99.90
51793;DHT22;37850;53.178;6.376;2023-12-20T05:49:57;6.70;99.90
51793;DHT22;37850;53.178;6.376;2023-12-20T05:52:23;6.70;99.90
51793;DHT22;37850;53.178;6.376;2023-12-20T05:54:48;6.60;99.90
51793;DHT22;37850;53.178;6.376;2023-12-20T05:57:14;6.70;99.90
51793;DHT22;37850;53.178;6.376;2023-12-20T05:59:40;6.70;99.90
51793;DHT22;37850;53.178;6.376;2023-12-20T06:02:06;6.70;99.90
51793;DHT22;37850;53.178;6.376;2023-12-20T06:04:32;6.70;99.90
51793;DHT22;37850;53.178;6.376;2023-12-20T06:06:58;6.70;99.90
51793;DHT22;37850;53.178;6.376;2023-12-20T06:09:26;6.70;99.90
51793;DHT22;37850;53.178;6.376;2023-12-20T06:11:52;6.70;99.90
51793;DHT22;37850;53.178;6.376;2023-12-20T06:14:18;6.70;99.90
51793;DHT22;37850;53.178;6.376;2023-12-20T06:16:44;6.80;99.90
51793;DHT22;37850;53.178;6.376;2023-12-20T06:19:10;6.70;99.90
51793;DHT22;37850;53.178;6.376;2023-12-20T06:21:36;6.70;99.90
51793;DHT22;37850;53.178;6.376;2023-12-20T06:24:02;7.30;99.90
51793;DHT22;37850;53.178;6.376;2023-12-20T06:26:28;6.80;99.90
51793;DHT22;37850;53.178;6.376;2023-12-20T06:28:53;6.80;99.90
51793;DHT22;37850;53.178;6.376;2023-12-20T06:31:19;6.80;99.90
51793;DHT22;37850;53.178;6.376;2023-12-20T06:33:45;6.90;99.90
51793;DHT22;37850;53.178;6.376;2023-12-20T06:36:12;6.90;99.90
51793;DHT22;37850;53.178;6.376;2023-12-20T06:38:39;6.90;99.90
51793;DHT22;37850;53.178;6.376;2023-12-20T06:41:05;7.00;99.90
51793;DHT22;37850;53.178;6.376;2023-12-20T06:43:31;6.90;99.90
51793;DHT22;37850;53.178;6.376;2023-12-20T06:45:58;6.90;99.90
51793;DHT22;37850;53.178;6.376;2023-12-20T06:48:24;7.00;99.90
51793;DHT22;37850;53.178;6.376;2023-12-20T06:50:49;7.00;99.90
51793;DHT22;37850;53.178;6.376;2023-12-20T06:53:15;7.00;99.90
51793;DHT22;37850;53.178;6.376;2023-12-20T06:55:41;7.10;99.90
51793;DHT22;37850;53.178;6.376;2023-12-20T06:58:06;7.10;99.90
51793;DHT22;37850;53.178;6.376;2023-12-20T07:00:32;7.10;99.90
51793;DHT22;37850;53.178;6.376;2023-12-20T07:02:59;7.60;99.90
51793;DHT22;37850;53.178;6.376;2023-12-20T07:05:24;7.10;99.90
51793;DHT22;37850;53.178;6.376;2023-12-20T07:07:51;7.20;99.90
51793;DHT22;37850;53.178;6.376;2023-12-20T07:10:16;7.10;99.90
51793;DHT22;37850;53.178;6.376;2023-12-20T07:12:42;7.10;99.90
51793;DHT22;37850;53.178;6.376;2023-12-20T07:15:08;7.20;99.90
51793;DHT22;37850;53.178;6.376;2023-12-20T07:17:34;7.10;99.90
51793;DHT22;37850;53.178;6.376;2023-12-20T07:20:00;7.10;99.90
51793;DHT22;37850;53.178;6.376;2023-12-20T07:22:33;7.10;99.90
51793;DHT22;37850;53.178;6.376;2023-12-20T07:24:59;7.20;99.90
51793;DHT22;37850;53.178;6.376;2023-12-20T07:27:25;7.20;99.90
51793;DHT22;37850;53.178;6.376;2023-12-20T07:29:51;7.20;99.90
51793;DHT22;37850;53.178;6.376;2023-12-20T07:32:17;7.20;99.90
51793;DHT22;37850;53.178;6.376;2023-12-20T07:34:43;7.30;99.90
51793;DHT22;37850;53.178;6.376;2023-12-20T07:37:09;7.30;99.90
51793;DHT22;37850;53.178;6.376;2023-12-20T07:39:40;7.30;99.90
51793;DHT22;37850;53.178;6.376;2023-12-20T07:42:07;7.30;99.90
51793;DHT22;37850;53.178;6.376;2023-12-20T07:44:33;7.30;99.90
51793;DHT22;37850;53.178;6.376;2023-12-20T07:46:59;7.30;99.90
51793;DHT22;37850;53.178;6.376;2023-12-20T07:49:26;7.30;99.90
51793;DHT22;37850;53.178;6.376;2023-12-20T07:51:52;7.40;99.90
51793;DHT22;37850;53.178;6.376;2023-12-20T07:54:18;7.50;99.90
51793;DHT22;37850;53.178;6.376;2023-12-20T07:56:43;7.40;99.90
51793;DHT22;37850;53.178;6.376;2023-12-20T07:59:09;7.40;99.90
51793;DHT22;37850;53.178;6.376;2023-12-20T08:01:35;7.40;99.90
51793;DHT22;37850;53.178;6.376;2023-12-20T08:04:01;7.40;99.90
51793;DHT22;37850;53.178;6.376;2023-12-20T08:06:27;7.40;99.90
51793;DHT22;37850;53.178;6.376;2023-12-20T08:08:52;7.70;99.90
51793;DHT22;37850;53.178;6.376;2023-12-20T08:11:18;7.40;99.90
51793;DHT22;37850;53.178;6.376;2023-12-20T08:13:45;7.80;99.90
51793;DHT22;37850;53.178;6.376;2023-12-20T08:16:11;7.40;99.90
51793;DHT22;37850;53.178;6.376;2023-12-20T08:18:39;7.40;99.90
51793;DHT22;37850;53.178;6.376;2023-12-20T08:21:05;7.40;99.90
51793;DHT22;37850;53.178;6.376;2023-12-20T08:23:33;7.40;99.90
51793;DHT22;37850;53.178;6.376;2023-12-20T08:26:06;7.50;99.90
51793;DHT22;37850;53.178;6.376;2023-12-20T08:28:36;7.40;99.90
51793;DHT22;37850;53.178;6.376;2023-12-20T08:31:02;7.40;99.90
51793;DHT22;37850;53.178;6.376;2023-12-20T08:33:27;7.40;99.90
51793;DHT22;37850;53.178;6.376;2023-12-20T08:35:53;7.40;99.90
51793;DHT22;37850;53.178;6.376;2023-12-20T08:38:19;7.40;99.90
51793;DHT22;37850;53.178;6.376;2023-12-20T08:40:46;7.40;99.90
51793;DHT22;37850;53.178;6.376;2023-12-20T08:43:11;7.40;99.90
51793;DHT22;37850;53.178;6.376;2023-12-20T08:45:38;7.40;99.90
51793;DHT22;37850;53.178;6.376;2023-12-20T08:48:04;7.50;99.90
51793;DHT22;37850;53.178;6.376;2023-12-20T08:50:31;7.40;99.90
51793;DHT22;37850;53.178;6.376;2023-12-20T08:52:56;7.50;99.90
51793;DHT22;37850;53.178;6.376;2023-12-20T08:55:22;7.40;99.90
51793;DHT22;37850;53.178;6.376;2023-12-20T08:57:48;7.10;99.90
51793;DHT22;37850;53.178;6.376;2023-12-20T09:00:14;7.30;99.90
51793;DHT22;37850;53.178;6.376;2023-12-20T09:02:41;7.10;99.90
51793;DHT22;37850;53.178;6.376;2023-12-20T09:05:07;7.00;99.90
51793;DHT22;37850;53.178;6.376;2023-12-20T09:07:32;6.90;99.90
51793;DHT22;37850;53.178;6.376;2023-12-20T09:09:58;6.80;99.90
51793;DHT22;37850;53.178;6.376;2023-12-20T09:12:25;6.70;99.90
51793;DHT22;37850;53.178;6.376;2023-12-20T09:14:51;6.60;99.90
51793;DHT22;37850;53.178;6.376;2023-12-20T09:17:18;6.50;99.90
51793;DHT22;37850;53.178;6.376;2023-12-20T09:19:44;6.40;99.90
51793;DHT22;37850;53.178;6.376;2023-12-20T09:22:10;6.40;99.90
51793;DHT22;37850;53.178;6.376;2023-12-20T09:24:36;6.50;99.90
51793;DHT22;37850;53.178;6.376;2023-12-20T09:27:02;6.20;99.90
51793;DHT22;37850;53.178;6.376;2023-12-20T09:29:28;6.20;99.90
51793;DHT22;37850;53.178;6.376;2023-12-20T09:31:54;6.10;99.90
51793;DHT22;37850;53.178;6.376;2023-12-20T09:34:20;6.10;99.90
51793;DHT22;37850;53.178;6.376;2023-12-20T09:36:46;6.10;99.90
51793;DHT22;37850;53.178;6.376;2023-12-20T09:39:17;6.10;99.90
51793;DHT22;37850;53.178;6.376;2023-12-20T09:42:01;6.10;99.90
51793;DHT22;37850;53.178;6.376;2023-12-20T09:44:27;6.10;99.90
51793;DHT22;37850;53.178;6.376;2023-12-20T09:46:55;6.00;99.90
51793;DHT22;37850;53.178;6.376;2023-12-20T09:49:21;6.60;99.90
51793;DHT22;37850;53.178;6.376;2023-12-20T09:51:48;6.00;99.90
51793;DHT22;37850;53.178;6.376;2023-12-20T09:54:18;6.00;99.90
51793;DHT22;37850;53.178;6.376;2023-12-20T09:56:44;6.00;99.90
51793;DHT22;37850;53.178;6.376;2023-12-20T09:59:10;6.00;99.90
51793;DHT22;37850;53.178;6.376;2023-12-20T10:01:39;6.00;99.90
51793;DHT22;37850;53.178;6.376;2023-12-20T10:04:06;6.00;99.90
51793;DHT22;37850;53.178;6.376;2023-12-20T10:06:41;6.10;99.90
51793;DHT22;37850;53.178;6.376;2023-12-20T10:09:07;6.70;99.90
51793;DHT22;37850;53.178;6.376;2023-12-20T10:11:35;6.30;99.90
51793;DHT22;37850;53.178;6.376;2023-12-20T10:14:03;6.10;99.90
51793;DHT22;37850;53.178;6.376;2023-12-20T10:16:29;6.20;99.90
51793;DHT22;37850;53.178;6.376;2023-12-20T10:18:55;6.20;99.90
51793;DHT22;37850;53.178;6.376;2023-12-20T10:21:22;6.20;99.90
51793;DHT22;37850;53.178;6.376;2023-12-20T10:23:48;6.20;99.90
51793;DHT22;37850;53.178;6.376;2023-12-20T10:26:26;6.30;99.90
51793;DHT22;37850;53.178;6.376;2023-12-20T10:28:54;6.40;99.90
51793;DHT22;37850;53.178;6.376;2023-12-20T10:31:28;6.30;99.90
51793;DHT22;37850;53.178;6.376;2023-12-20T10:33:57;6.30;99.90
51793;DHT22;37850;53.178;6.376;2023-12-20T10:36:24;6.30;99.90
51793;DHT22;37850;53.178;6.376;2023-12-20T10:38:52;6.30;99.90
51793;DHT22;37850;53.178;6.376;2023-12-20T10:41:27;7.10;99.90
51793;DHT22;37850;53.178;6.376;2023-12-20T10:43:59;6.40;99.90
51793;DHT22;37850;53.178;6.376;2023-12-20T10:46:29;6.40;99.90
51793;DHT22;37850;53.178;6.376;2023-12-20T10:48:56;6.40;99.90
51793;DHT22;37850;53.178;6.376;2023-12-20T10:51:23;6.40;99.90
51793;DHT22;37850;53.178;6.376;2023-12-20T10:53:50;6.40;99.90
51793;DHT22;37850;53.178;6.376;2023-12-20T10:56:17;6.40;99.90
51793;DHT22;37850;53.178;6.376;2023-12-20T10:58:45;6.30;99.90
51793;DHT22;37850;53.178;6.376;2023-12-20T11:01:16;6.40;99.90
51793;DHT22;37850;53.178;6.376;2023-12-20T11:03:49;6.40;99.90
51793;DHT22;37850;53.178;6.376;2023-12-20T11:06:29;6.40;99.90
51793;DHT22;37850;53.178;6.376;2023-12-20T11:09:26;6.40;99.90
51793;DHT22;37850;53.178;6.376;2023-12-20T11:12:16;6.40;99.90
51793;DHT22;37850;53.178;6.376;2023-12-20T11:14:51;6.40;99.90
51793;DHT22;37850;53.178;6.376;2023-12-20T11:17:18;6.40;99.90
51793;DHT22;37850;53.178;6.376;2023-12-20T11:20:05;6.50;99.90
51793;DHT22;37850;53.178;6.376;2023-12-20T11:22:32;6.50;99.90
51793;DHT22;37850;53.178;6.376;2023-12-20T11:25:06;6.50;99.90
51793;DHT22;37850;53.178;6.376;2023-12-20T11:27:34;6.50;99.90
51793;DHT22;37850;53.178;6.376;2023-12-20T11:30:03;6.50;99.90
51793;DHT22;37850;53.178;6.376;2023-12-20T11:32:33;6.50;99.90
51793;DHT22;37850;53.178;6.376;2023-12-20T11:35:01;6.50;99.90
51793;DHT22;37850;53.178;6.376;2023-12-20T11:37:42;6.60;99.90
51793;DHT22;37850;53.178;6.376;2023-12-20T11:40:12;6.60;99.90
51793;DHT22;37850;53.178;6.376;2023-12-20T11:42:39;6.60;99.90
51793;DHT22;37850;53.178;6.376;2023-12-20T11:45:09;6.60;99.90
51793;DHT22;37850;53.178;6.376;2023-12-20T11:47:36;6.60;99.90
51793;DHT22;37850;53.178;6.376;2023-12-20T11:50:01;6.70;99.90
51793;DHT22;37850;53.178;6.376;2023-12-20T11:52:29;6.70;99.90
51793;DHT22;37850;53.178;6.376;2023-12-20T11:54:57;6.70;99.90
51793;DHT22;37850;53.178;6.376;2023-12-20T11:57:23;6.70;99.90
51793;DHT22;37850;53.178;6.376;2023-12-20T11:59:49;6.70;99.90
51793;DHT22;37850;53.178;6.376;2023-12-20T12:02:15;6.80;99.90
51793;DHT22;37850;53.178;6.376;2023-12-20T12:04:41;6.80;99.90
51793;DHT22;37850;53.178;6.376;2023-12-20T12:07:07;6.80;99.90
51793;DHT22;37850;53.178;6.376;2023-12-20T12:09:33;6.80;99.90
51793;DHT22;37850;53.178;6.376;2023-12-20T12:11:59;6.80;99.90
51793;DHT22;37850;53.178;6.376;2023-12-20T12:14:25;6.80;99.90
51793;DHT22;37850;53.178;6.376;2023-12-20T12:16:51;6.90;99.90
51793;DHT22;37850;53.178;6.376;2023-12-20T12:19:22;6.90;99.90
51793;DHT22;37850;53.178;6.376;2023-12-20T12:21:49;6.90;99.90
51793;DHT22;37850;53.178;6.376;2023-12-20T12:24:20;6.90;99.90
51793;DHT22;37850;53.178;6.376;2023-12-20T12:26:52;6.90;99.90
51793;DHT22;37850;53.178;6.376;2023-12-20T12:29:18;6.90;99.90
51793;DHT22;37850;53.178;6.376;2023-12-20T12:31:43;6.90;99.90
51793;DHT22;37850;53.178;6.376;2023-12-20T12:34:09;6.90;99.90
51793;DHT22;37850;53.178;6.376;2023-12-20T12:36:35;6.90;99.90
51793;DHT22;37850;53.178;6.376;2023-12-20T12:39:04;6.90;99.90
51793;DHT22;37850;53.178;6.376;2023-12-20T12:41:30;6.90;99.90
51793;DHT22;37850;53.178;6.376;2023-12-20T12:43:56;6.90;99.90
51793;DHT22;37850;53.178;6.376;2023-12-20T12:46:21;6.90;99.90
51793;DHT22;37850;53.178;6.376;2023-12-20T12:48:47;6.90;99.90
51793;DHT22;37850;53.178;6.376;2023-12-20T12:51:14;6.90;99.90
51793;DHT22;37850;53.178;6.376;2023-12-20T12:53:40;6.90;99.90
51793;DHT22;37850;53.178;6.376;2023-12-20T12:56:06;6.90;99.90
51793;DHT22;37850;53.178;6.376;2023-12-20T12:58:32;6.90;99.90
51793;DHT22;37850;53.178;6.376;2023-12-20T13:00:58;6.90;99.90
51793;DHT22;37850;53.178;6.376;2023-12-20T13:03:24;7.00;99.90
51793;DHT22;37850;53.178;6.376;2023-12-20T13:05:53;7.50;99.90
51793;DHT22;37850;53.178;6.376;2023-12-20T13:08:19;6.90;99.90
51793;DHT22;37850;53.178;6.376;2023-12-20T13:10:44;7.20;99.90
51793;DHT22;37850;53.178;6.376;2023-12-20T13:13:10;7.10;99.90
51793;DHT22;37850;53.178;6.376;2023-12-20T13:15:36;7.00;99.90
51793;DHT22;37850;53.178;6.376;2023-12-20T13:18:02;7.00;99.90
51793;DHT22;37850;53.178;6.376;2023-12-20T13:20:27;7.00;99.90
51793;DHT22;37850;53.178;6.376;2023-12-20T13:22:53;7.00;99.90
51793;DHT22;37850;53.178;6.376;2023-12-20T13:25:19;7.00;99.90
51793;DHT22;37850;53.178;6.376;2023-12-20T13:27:45;6.90;99.90
51793;DHT22;37850;53.178;6.376;2023-12-20T13:30:11;7.00;99.90
51793;DHT22;37850;53.178;6.376;2023-12-20T13:32:37;6.90;99.90
51793;DHT22;37850;53.178;6.376;2023-12-20T13:35:03;6.90;99.90
51793;DHT22;37850;53.178;6.376;2023-12-20T13:37:30;6.90;99.90
51793;DHT22;37850;53.178;6.376;2023-12-20T13:39:55;6.90;99.90
51793;DHT22;37850;53.178;6.376;2023-12-20T13:42:21;6.90;99.90
51793;DHT22;37850;53.178;6.376;2023-12-20T13:44:47;6.80;99.90
51793;DHT22;37850;53.178;6.376;2023-12-20T13:47:13;6.80;99.90
51793;DHT22;37850;53.178;6.376;2023-12-20T13:49:39;6.80;99.90
51793;DHT22;37850;53.178;6.376;2023-12-20T13:52:05;6.80;99.90
51793;DHT22;37850;53.178;6.376;2023-12-20T13:54:31;6.80;99.90
51793;DHT22;37850;53.178;6.376;2023-12-20T13:56:57;6.80;99.90
51793;DHT22;37850;53.178;6.376;2023-12-20T13:59:23;6.90;99.90
51793;DHT22;37850;53.178;6.376;2023-12-20T14:01:49;6.70;99.90
51793;DHT22;37850;53.178;6.376;2023-12-20T14:04:16;6.70;99.90
51793;DHT22;37850;53.178;6.376;2023-12-20T14:06:42;6.70;99.90
51793;DHT22;37850;53.178;6.376;2023-12-20T14:09:08;6.70;99.90
51793;DHT22;37850;53.178;6.376;2023-12-20T14:11:34;6.70;99.90
51793;DHT22;37850;53.178;6.376;2023-12-20T14:13:59;6.80;99.90
51793;DHT22;37850;53.178;6.376;2023-12-20T14:16:27;6.80;99.90
51793;DHT22;37850;53.178;6.376;2023-12-20T14:18:53;6.70;99.90
51793;DHT22;37850;53.178;6.376;2023-12-20T14:21:22;6.60;99.90
51793;DHT22;37850;53.178;6.376;2023-12-20T14:23:49;6.60;99.90
51793;DHT22;37850;53.178;6.376;2023-12-20T14:26:15;6.70;99.90
51793;DHT22;37850;53.178;6.376;2023-12-20T14:28:42;6.60;99.90
51793;DHT22;37850;53.178;6.376;2023-12-20T14:31:08;6.60;99.90
51793;DHT22;37850;53.178;6.376;2023-12-20T14:33:35;6.60;99.90
51793;DHT22;37850;53.178;6.376;2023-12-20T14:36:03;6.60;99.90
51793;DHT22;37850;53.178;6.376;2023-12-20T14:38:31;6.60;99.90
51793;DHT22;37850;53.178;6.376;2023-12-20T14:40:57;6.60;99.90
51793;DHT22;37850;53.178;6.376;2023-12-20T14:43:23;6.60;99.90
51793;DHT22;37850;53.178;6.376;2023-12-20T14:45:49;6.80;99.90
51793;DHT22;37850;53.178;6.376;2023-12-20T14:48:16;6.60;99.90
51793;DHT22;37850;53.178;6.376;2023-12-20T14:50:42;6.60;99.90
51793;DHT22;37850;53.178;6.376;2023-12-20T14:53:08;6.60;99.90
51793;DHT22;37850;53.178;6.376;2023-12-20T14:55:34;6.60;99.90
51793;DHT22;37850;53.178;6.376;2023-12-20T14:58:00;6.60;99.90
51793;DHT22;37850;53.178;6.376;2023-12-20T15:00:26;6.60;99.90
51793;DHT22;37850;53.178;6.376;2023-12-20T15:02:52;6.60;99.90
51793;DHT22;37850;53.178;6.376;2023-12-20T15:05:21;6.60;99.90
51793;DHT22;37850;53.178;6.376;2023-12-20T15:07:46;6.60;99.90
51793;DHT22;37850;53.178;6.376;2023-12-20T15:10:14;6.60;99.90
51793;DHT22;37850;53.178;6.376;2023-12-20T15:12:39;6.60;99.90
51793;DHT22;37850;53.178;6.376;2023-12-20T15:15:06;6.60;99.90
51793;DHT22;37850;53.178;6.376;2023-12-20T15:17:32;6.50;99.90
51793;DHT22;37850;53.178;6.376;2023-12-20T15:20:00;6.60;99.90
51793;DHT22;37850;53.178;6.376;2023-12-20T15:22:26;6.60;99.90
51793;DHT22;37850;53.178;6.376;2023-12-20T15:24:52;6.50;99.90
51793;DHT22;37850;53.178;6.376;2023-12-20T15:27:20;7.00;99.90
51793;DHT22;37850;53.178;6.376;2023-12-20T15:29:46;6.60;99.90
51793;DHT22;37850;53.178;6.376;2023-12-20T15:32:11;6.50;99.90
51793;DHT22;37850;53.178;6.376;2023-12-20T15:34:37;6.50;99.90
51793;DHT22;37850;53.178;6.376;2023-12-20T15:37:03;6.80;99.90
51793;DHT22;37850;53.178;6.376;2023-12-20T15:39:29;6.70;99.90
51793;DHT22;37850;53.178;6.376;2023-12-20T15:41:55;6.50;99.90